Radiosonde details



Informationen :

Serial : X5211247
Type : Vaisala RS41-NG
Date of production : 22.12.2025
Frequency : 404.600MHz
Launchsite : Boise Air Terminal
Nearest town : Challis, US (32.9km)

Altitude (Max) : 27604m at 2026-09-03 18:30:00
Speed (Max) : 172km/h at altitude 10617m

Average speed : 86km/h
Average ascent rate : 5m/s
Average descent rate : -4m/s
Ascent rate (Max) : 8.6m/s
Descent rate (Max): -5.1m/s

First frame :
KE7DJD at 2026-09-03 17:05:41 at altitude 1433m (OG: 1391m)
Last frame :
KE7DJD at 2026-09-03 19:52:34 at altitude 7614m (OG: 7572m)

Flighttime : 2h46m53s
Ascent time : 1h24m19s
Descent time : 1h22m34s
Uptime : -
Killtimer : 7h22m

Distance (Straight line distance): 172km

Distance (Route):


Frames : 350


Measurement :

Temperature : -24.1°C
Humidity : 56.1%
Pressure : 0hPa


Vertical profile (SkewT) :


Elevation profile :



Receiving stations :


Receiver Frames First received Last received
KE7DJD 350 2026-09-03 17:05:41 2026-09-03 19:52:34

Share per receiver :



All frames :


Receiver Date Latitude Longitude Direction Speed Altitude Climb Temperature Humidity Pressure Voltage Killtimer Uptime BKT XDATA
KE7DJD2026-09-03 19:52:3444.61090-114.6189449°130km/h7614m-2.9m/s-24.1°C56.1%0hPa0V00:00:0000:00:0000:00:00
KE7DJD2026-09-03 19:52:0344.60405-114.6292247°137km/h7686m-2.1m/s-24.6°C66.9%0hPa0V07:22:0000:00:0000:00:00
KE7DJD2026-09-03 19:51:4344.59954-114.6356951°133km/h7726m-1.9m/s-24.7°C52.7%0hPa0V07:22:0000:00:0000:00:00
KE7DJD2026-09-03 19:50:4144.58534-114.6557844°133km/h7858m-2.2m/s-25.8°C42.2%0hPa0V07:23:0000:00:0000:00:00
KE7DJD2026-09-03 19:50:2144.58105-114.6622850°135km/h7903m-2.4m/s-26.0°C47.0%0hPa0V07:24:0000:00:0000:00:00
KE7DJD2026-09-03 19:50:0044.57648-114.6692953°133km/h7954m-2.4m/s-26.3°C50.5%0hPa0V07:24:0000:00:0000:00:00
KE7DJD2026-09-03 19:49:4044.57203-114.6762251°122km/h8003m-2.4m/s-26.8°C55.6%0hPa0V07:24:0000:00:0000:00:00
KE7DJD2026-09-03 19:49:1944.56737-114.6838145°135km/h8054m-2.6m/s-27.3°C57.3%0hPa0V07:25:0000:00:0000:00:00
KE7DJD2026-09-03 19:48:5944.56296-114.6907048°141km/h8105m-2.5m/s-27.7°C61.0%0hPa0V07:25:0000:00:0000:00:00
KE7DJD2026-09-03 19:48:3844.55817-114.6976951°135km/h8159m-2.6m/s-28.1°C65.1%0hPa0V07:25:0000:00:0000:00:00
KE7DJD2026-09-03 19:48:1744.55326-114.7048950°126km/h8213m-2.6m/s-28.5°C63.8%0hPa0V07:25:0000:00:0000:00:00
KE7DJD2026-09-03 19:47:5644.54839-114.7122545°128km/h8268m-2.7m/s-28.8°C46.8%0hPa0V07:26:0000:00:0000:00:00
KE7DJD2026-09-03 19:47:3544.54360-114.7195746°142km/h8325m-2.7m/s-29.2°C42.4%0hPa0V07:26:0000:00:0000:00:00
KE7DJD2026-09-03 19:47:1444.53871-114.7264550°124km/h8382m-2.9m/s-29.4°C36.5%0hPa0V07:26:0000:00:0000:00:00
KE7DJD2026-09-03 19:46:5444.53412-114.7337347°122km/h8440m-2.7m/s-29.4°C13.8%0hPa0V07:27:0000:00:0000:00:00
KE7DJD2026-09-03 19:46:3344.53012-114.7404651°135km/h8495m-2.8m/s-29.9°C8.1%0hPa0V07:27:0000:00:0000:00:00
KE7DJD2026-09-03 19:46:1244.52574-114.7474754°130km/h8552m-2.8m/s-30.3°C8.1%0hPa0V07:28:0000:00:0000:00:00
KE7DJD2026-09-03 19:45:5244.52143-114.7543552°120km/h8610m-3.0m/s-30.7°C8.6%0hPa0V07:28:0000:00:0000:00:00
KE7DJD2026-09-03 19:45:3144.51691-114.7618646°130km/h8672m-2.9m/s-31.2°C9.8%0hPa0V07:28:0000:00:0000:00:00
KE7DJD2026-09-03 19:45:1144.51272-114.7686950°137km/h8732m-3.2m/s-31.7°C10.4%0hPa0V07:29:0000:00:0000:00:00
KE7DJD2026-09-03 19:44:5044.50815-114.7755653°122km/h8797m-3.1m/s-32.0°C9.8%0hPa0V07:29:0000:00:0000:00:00
KE7DJD2026-09-03 19:44:2944.50351-114.7829047°122km/h8864m-3.2m/s-32.4°C9.2%0hPa0V07:30:0000:00:0000:00:00
KE7DJD2026-09-03 19:44:0944.49918-114.7899246°135km/h8929m-3.3m/s-33.0°C8.9%0hPa0V07:30:0000:00:0000:00:00
KE7DJD2026-09-03 19:43:4944.49489-114.7968451°141km/h8993m-3.1m/s-33.5°C9.3%0hPa0V07:30:0000:00:0000:00:00
KE7DJD2026-09-03 19:43:2844.49023-114.8039954°126km/h9060m-3.3m/s-33.9°C9.4%0hPa0V07:30:0000:00:0000:00:00
KE7DJD2026-09-03 19:43:0744.48553-114.8113648°122km/h9126m-3.2m/s-34.4°C10.0%0hPa0V07:30:0000:00:0000:00:00
KE7DJD2026-09-03 19:42:4744.48119-114.8183846°133km/h9186m-3.0m/s-35.1°C11.4%0hPa0V07:31:0000:00:0000:00:00
KE7DJD2026-09-03 19:42:2644.47666-114.8254949°139km/h9250m-3.1m/s-35.6°C11.8%0hPa0V07:31:0000:00:0000:00:00
KE7DJD2026-09-03 19:42:0544.47199-114.8324651°135km/h9313m-3.1m/s-36.0°C12.5%0hPa0V07:31:0000:00:0000:00:00
KE7DJD2026-09-03 19:41:4444.46717-114.8395452°128km/h9377m-3.0m/s-36.5°C12.6%0hPa0V07:32:0000:00:0000:00:00
KE7DJD2026-09-03 19:41:2344.46221-114.8466748°124km/h9439m-2.9m/s-37.0°C12.4%0hPa0V07:32:0000:00:0000:00:00
KE7DJD2026-09-03 19:41:0244.45720-114.8538244°126km/h9501m-2.9m/s-37.4°C12.6%0hPa0V07:33:0000:00:0000:00:00
KE7DJD2026-09-03 19:40:4144.45221-114.8609742°133km/h9563m-3.0m/s-38.0°C12.7%0hPa0V07:33:0000:00:0000:00:00
KE7DJD2026-09-03 19:40:2044.44723-114.8680845°144km/h9625m-2.9m/s-38.4°C12.9%0hPa0V07:33:0000:00:0000:00:00
KE7DJD2026-09-03 19:39:5944.44210-114.8750150°139km/h9689m-3.1m/s-38.7°C12.7%0hPa0V07:34:0000:00:0000:00:00
KE7DJD2026-09-03 19:39:3844.43688-114.8822150°137km/h9755m-3.1m/s-39.1°C10.0%0hPa0V07:34:0000:00:0000:00:00
KE7DJD2026-09-03 19:39:1844.43140-114.8896243°131km/h9820m-3.2m/s-39.6°C10.2%0hPa0V07:35:0000:00:0000:00:00
KE7DJD2026-09-03 19:38:5744.42649-114.8966543°148km/h9884m-3.5m/s-40.3°C11.2%0hPa0V07:35:0000:00:0000:00:00
KE7DJD2026-09-03 19:38:3644.42121-114.9038248°148km/h9954m-3.4m/s-40.8°C12.9%0hPa0V07:35:0000:00:0000:00:00
KE7DJD2026-09-03 19:38:1544.41569-114.9110649°137km/h10024m-3.4m/s-41.3°C13.3%0hPa0V07:36:0000:00:0000:00:00
KE7DJD2026-09-03 19:37:5544.41050-114.9184342°141km/h10091m-3.4m/s-41.8°C13.9%0hPa0V07:36:0000:00:0000:00:00
KE7DJD2026-09-03 19:37:3444.40523-114.9261246°155km/h10160m-3.4m/s-42.3°C15.1%0hPa0V07:36:0000:00:0000:00:00
KE7DJD2026-09-03 19:37:1344.39975-114.9336349°150km/h10228m-3.2m/s-42.7°C15.9%0hPa0V07:36:0000:00:0000:00:00
KE7DJD2026-09-03 19:36:5344.39438-114.9409249°142km/h10292m-3.2m/s-43.4°C18.6%0hPa0V07:37:0000:00:0000:00:00
KE7DJD2026-09-03 19:36:3244.38883-114.9490342°150km/h10356m-3.1m/s-43.9°C36.5%0hPa0V07:37:0000:00:0000:00:00
KE7DJD2026-09-03 19:36:1244.38352-114.9564744°159km/h10414m-3.0m/s-44.5°C55.1%0hPa0V07:37:0000:00:0000:00:00
KE7DJD2026-09-03 19:35:5144.37777-114.9640749°155km/h10476m-3.0m/s-44.6°C33.5%0hPa0V07:38:0000:00:0000:00:00
KE7DJD2026-09-03 19:35:3044.37184-114.9718247°144km/h10536m-2.9m/s-44.9°C26.0%0hPa0V07:38:0000:00:0000:00:00
KE7DJD2026-09-03 19:35:1044.36619-114.9794343°146km/h10595m-3.0m/s-45.4°C27.0%0hPa0V07:39:0000:00:0000:00:00
KE7DJD2026-09-03 19:34:4944.36038-114.9876042°159km/h10658m-3.0m/s-46.1°C28.9%0hPa0V07:39:0000:00:0000:00:00
KE7DJD2026-09-03 19:34:2844.35463-114.9958247°170km/h10724m-3.3m/s-46.5°C30.4%0hPa0V07:39:0000:00:0000:00:00
KE7DJD2026-09-03 19:34:0744.34870-115.0042250°162km/h10793m-3.4m/s-47.1°C32.1%0hPa0V07:40:0000:00:0000:00:00
KE7DJD2026-09-03 19:33:4644.34251-115.0131244°159km/h10867m-3.6m/s-47.7°C34.3%0hPa0V07:40:0000:00:0000:00:00
KE7DJD2026-09-03 19:33:2544.33669-115.0218245°168km/h10948m-3.8m/s-48.5°C27.0%0hPa0V07:41:0000:00:0000:00:00
KE7DJD2026-09-03 19:33:0544.33116-115.0299848°170km/h11027m-3.9m/s-49.0°C22.6%0hPa0V07:41:0000:00:0000:00:00
KE7DJD2026-09-03 19:32:4444.32516-115.0382551°151km/h11113m-4.1m/s-49.3°C20.4%0hPa0V07:41:0000:00:0000:00:00
KE7DJD2026-09-03 19:32:2444.31959-115.0461847°144km/h11194m-4.0m/s-49.9°C26.0%0hPa0V07:42:0000:00:0000:00:00
KE7DJD2026-09-03 19:32:0344.31386-115.0545842°155km/h11277m-4.0m/s-50.6°C27.3%0hPa0V07:42:0000:00:0000:00:00
KE7DJD2026-09-03 19:31:4244.30818-115.0626444°164km/h11356m-3.9m/s-51.1°C27.3%0hPa0V07:42:0000:00:0000:00:00
KE7DJD2026-09-03 19:31:2144.30251-115.0705348°162km/h11430m-3.5m/s-51.4°C26.4%0hPa0V07:42:0000:00:0000:00:00
KE7DJD2026-09-03 19:31:0144.29695-115.0779650°151km/h11496m-3.4m/s-51.4°C27.5%0hPa0V07:42:0000:00:0000:00:00
KE7DJD2026-09-03 19:30:4144.29155-115.0856952°146km/h11559m-3.0m/s-51.6°C22.1%0hPa0V07:43:0000:00:0000:00:00
KE7DJD2026-09-03 19:30:2044.28596-115.0942445°146km/h11621m-3.0m/s-51.6°C13.6%0hPa0V07:43:0000:00:0000:00:00
KE7DJD2026-09-03 19:30:0044.28134-115.1021051°157km/h11679m-2.8m/s-50.6°C11.9%0hPa0V07:44:0000:00:0000:00:00
KE7DJD2026-09-03 19:29:3944.27660-115.1104554°151km/h11738m-2.9m/s-50.8°C12.4%0hPa0V07:44:0000:00:0000:00:00
KE7DJD2026-09-03 19:29:1944.27210-115.1181656°144km/h11798m-2.9m/s-51.2°C12.5%0hPa0V07:44:0000:00:0000:00:00
KE7DJD2026-09-03 19:28:5844.26732-115.1260154°124km/h11862m-3.3m/s-51.4°C12.2%0hPa0V07:45:0000:00:0000:00:00
KE7DJD2026-09-03 19:28:3744.26305-115.1339252°122km/h11930m-3.3m/s-51.9°C12.0%0hPa0V07:45:0000:00:0000:00:00
KE7DJD2026-09-03 19:28:1644.25981-115.1410865°120km/h12005m-3.8m/s-49.9°C6.7%0hPa0V07:46:0000:00:0000:00:00
KE7DJD2026-09-03 19:27:5644.25656-115.1479059°100km/h12080m-3.9m/s-50.2°C5.5%0hPa0V07:46:0000:00:0000:00:00
KE7DJD2026-09-03 19:27:3544.25353-115.1548457°97km/h12161m-4.1m/s-50.2°C4.6%0hPa0V07:46:0000:00:0000:00:00
KE7DJD2026-09-03 19:27:1444.25070-115.1614953°106km/h12243m-4.0m/s-50.6°C4.2%0hPa0V07:47:0000:00:0000:00:00
KE7DJD2026-09-03 19:26:5444.24808-115.1673662°110km/h12319m-3.7m/s-50.7°C4.5%0hPa0V07:47:0000:00:0000:00:00
KE7DJD2026-09-03 19:26:3344.24477-115.1731557°89km/h12399m-3.7m/s-50.0°C3.6%0hPa0V07:47:0000:00:0000:00:00
KE7DJD2026-09-03 19:26:1344.24142-115.1784444°88km/h12475m-3.9m/s-50.2°C3.4%0hPa0V07:47:0000:00:0000:00:00
KE7DJD2026-09-03 19:25:5244.23770-115.1837937°100km/h12554m-3.8m/s-50.2°C3.2%0hPa0V07:47:0000:00:0000:00:00
KE7DJD2026-09-03 19:25:3244.23406-115.1884941°113km/h12630m-4.0m/s-50.5°C3.4%0hPa0V07:48:0000:00:0000:00:00
KE7DJD2026-09-03 19:25:1244.23012-115.1929045°110km/h12707m-4.0m/s-50.9°C3.6%0hPa0V07:48:0000:00:0000:00:00
KE7DJD2026-09-03 19:24:5144.22577-115.1976245°108km/h12789m-4.0m/s-51.1°C3.4%0hPa0V07:49:0000:00:0000:00:00
KE7DJD2026-09-03 19:24:3144.22125-115.2021235°95km/h12867m-3.8m/s-51.1°C3.2%0hPa0V07:49:0000:00:0000:00:00
KE7DJD2026-09-03 19:24:1044.21661-115.2069632°102km/h12951m-4.0m/s-51.9°C3.5%0hPa0V07:49:0000:00:0000:00:00
KE7DJD2026-09-03 19:23:5044.21223-115.2116331°110km/h13030m-3.7m/s-52.6°C3.6%0hPa0V07:50:0000:00:0000:00:00
KE7DJD2026-09-03 19:23:2944.20766-115.2167334°119km/h13116m-4.0m/s-53.1°C3.6%0hPa0V07:50:0000:00:0000:00:00
KE7DJD2026-09-03 19:23:0844.20296-115.2222836°124km/h13201m-4.0m/s-53.7°C3.4%0hPa0V07:51:0000:00:0000:00:00
KE7DJD2026-09-03 19:22:4744.19831-115.2284144°139km/h13288m-4.1m/s-53.9°C3.1%0hPa0V07:51:0000:00:0000:00:00
KE7DJD2026-09-03 19:22:2744.19404-115.2346957°124km/h13369m-4.3m/s-53.4°C2.6%0hPa0V07:51:0000:00:0000:00:00
KE7DJD2026-09-03 19:22:0644.18999-115.2422958°111km/h13453m-4.1m/s-51.9°C2.1%0hPa0V07:52:0000:00:0000:00:00
KE7DJD2026-09-03 19:21:4644.18686-115.2497357°111km/h13533m-4.0m/s-52.2°C2.0%0hPa0V07:52:0000:00:0000:00:00
KE7DJD2026-09-03 19:21:2544.18439-115.2571264°122km/h13618m-4.0m/s-50.5°C1.6%0hPa0V07:53:0000:00:0000:00:00
KE7DJD2026-09-03 19:21:0544.18220-115.2640670°124km/h13698m-4.0m/s-50.7°C1.7%0hPa0V07:53:0000:00:0000:00:00
KE7DJD2026-09-03 19:20:4444.17978-115.2716571°124km/h13781m-3.9m/s-51.1°C1.7%0hPa0V07:53:0000:00:0000:00:00
KE7DJD2026-09-03 19:20:2344.17716-115.2794972°124km/h13868m-4.2m/s-51.7°C1.8%0hPa0V07:53:0000:00:0000:00:00
KE7DJD2026-09-03 19:20:0344.17467-115.2869272°115km/h13959m-4.3m/s-51.7°C1.8%0hPa0V07:53:0000:00:0000:00:00
KE7DJD2026-09-03 19:19:4244.17226-115.2934271°95km/h14044m-4.3m/s-52.2°C1.7%0hPa0V07:54:0000:00:0000:00:00
KE7DJD2026-09-03 19:19:2244.16971-115.2995864°86km/h14133m-4.5m/s-52.5°C1.8%0hPa0V07:54:0000:00:0000:00:00
KE7DJD2026-09-03 19:19:0144.16715-115.3059857°82km/h14226m-4.5m/s-52.0°C1.6%0hPa0V07:55:0000:00:0000:00:00
KE7DJD2026-09-03 19:18:4144.16506-115.3114355°77km/h14316m-4.4m/s-52.0°C1.6%0hPa0V07:55:0000:00:0000:00:00
KE7DJD2026-09-03 19:18:2144.16314-115.3165653°78km/h14407m-4.6m/s-52.5°C1.7%0hPa0V07:55:0000:00:0000:00:00
KE7DJD2026-09-03 19:18:0044.16134-115.3217355°78km/h14503m-4.8m/s-53.1°C1.8%0hPa0V07:56:0000:00:0000:00:00
KE7DJD2026-09-03 19:17:4044.15980-115.3265257°78km/h14596m-4.8m/s-53.9°C1.9%0hPa0V07:56:0000:00:0000:00:00
KE7DJD2026-09-03 19:17:2044.15833-115.3311459°80km/h14690m-4.7m/s-54.9°C2.0%0hPa0V07:57:0000:00:0000:00:00
KE7DJD2026-09-03 19:16:5944.15701-115.3360963°82km/h14789m-4.8m/s-55.4°C2.1%0hPa0V07:57:0000:00:0000:00:00
KE7DJD2026-09-03 19:16:3944.15579-115.3408661°82km/h14882m-4.7m/s-55.9°C2.1%0hPa0V07:57:0000:00:0000:00:00
KE7DJD2026-09-03 19:16:1944.15429-115.3454258°84km/h14976m-4.7m/s-56.6°C2.1%0hPa0V07:58:0000:00:0000:00:00
KE7DJD2026-09-03 19:15:5844.15233-115.3503257°93km/h15075m-4.8m/s-56.6°C2.0%0hPa0V07:58:0000:00:0000:00:00
KE7DJD2026-09-03 19:15:3844.15049-115.3552669°95km/h15171m-4.9m/s-56.1°C2.1%0hPa0V07:59:0000:00:0000:00:00
KE7DJD2026-09-03 19:15:1744.14876-115.3600867°82km/h15274m-4.8m/s-55.5°C1.9%0hPa0V07:59:0000:00:0000:00:00
KE7DJD2026-09-03 19:14:5744.14678-115.3642358°80km/h15377m-4.7m/s-55.9°C1.9%0hPa0V07:59:0000:00:0000:00:00
KE7DJD2026-09-03 19:14:3644.14439-115.3679061°77km/h15474m-5.0m/s-55.8°C1.7%0hPa0V07:59:0000:00:0000:00:00
KE7DJD2026-09-03 19:14:1644.14205-115.3718765°78km/h15574m-5.1m/s-55.8°C1.7%0hPa0V07:59:0000:00:0000:00:00
KE7DJD2026-09-03 19:13:5544.13980-115.3762864°82km/h15678m-4.7m/s-55.6°C1.6%0hPa0V08:00:0000:00:0000:00:00
KE7DJD2026-09-03 19:13:3544.13766-115.3804560°86km/h15777m-5.0m/s-55.6°C1.5%0hPa0V08:00:0000:00:0000:00:00
KE7DJD2026-09-03 19:13:1444.13570-115.3843267°75km/h15879m-4.8m/s-55.7°C1.5%0hPa0V08:00:0000:00:0000:00:00
KE7DJD2026-09-03 19:12:5344.13369-115.3880164°69km/h15982m-4.8m/s-55.5°C1.5%0hPa0V08:01:0000:00:0000:00:00
KE7DJD2026-09-03 19:12:3344.13122-115.3913054°53km/h16078m-5.0m/s-55.7°C1.4%0hPa0V08:01:0000:00:0000:00:00
KE7DJD2026-09-03 19:12:1244.12883-115.3948254°55km/h16181m-4.8m/s-55.8°C1.5%0hPa0V00:00:0000:00:0000:00:00
KE7DJD2026-09-03 19:11:5144.12601-115.3983141°57km/h16284m-4.8m/s-55.0°C1.3%0hPa0V00:00:0000:00:0000:00:00
KE7DJD2026-09-03 19:11:3144.12326-115.4023348°62km/h16387m-4.8m/s-54.9°C0.9%0hPa0V00:00:0000:00:0000:00:00
KE7DJD2026-09-03 18:30:0044.06104-115.40147268°33km/h27604m5.5m/s-50.0°C0.9%0hPa0V00:00:0000:00:0000:00:00
KE7DJD2026-09-03 18:29:3944.06103-115.39932263°24km/h27482m7.6m/s-49.6°C0.9%0hPa0V00:00:0000:00:0000:00:00
KE7DJD2026-09-03 18:29:1844.06107-115.39727247°18km/h27354m7.1m/s-49.2°C0.8%0hPa0V00:00:0000:00:0000:00:00
KE7DJD2026-09-03 18:28:5744.06105-115.39587307°24km/h27226m6.6m/s-49.3°C0.9%0hPa0V00:00:0000:00:0000:00:00
KE7DJD2026-09-03 18:28:3544.06145-115.39411243°29km/h27090m5.2m/s-48.7°C0.9%0hPa0V00:00:0000:00:0000:00:00
KE7DJD2026-09-03 18:28:1444.06195-115.39232271°18km/h26959m5.5m/s-48.6°C0.8%0hPa0V00:00:0000:00:0000:00:00
KE7DJD2026-09-03 18:27:5344.06216-115.39099307°20km/h26824m5.0m/s-48.3°C0.8%0hPa0V00:00:0000:00:0000:00:00
KE7DJD2026-09-03 18:27:3044.06223-115.39012354°15km/h26682m6.2m/s-48.4°C0.8%0hPa0V00:00:0000:00:0000:00:00
KE7DJD2026-09-03 18:27:0944.06172-115.3897918km/h26553m5.6m/s-48.8°C0.9%0hPa0V00:00:0000:00:0000:00:00
KE7DJD2026-09-03 18:26:4744.06066-115.38903339°26km/h26417m5.1m/s-49.7°C0.8%0hPa0V00:00:0000:00:0000:00:00
KE7DJD2026-09-03 18:26:2744.05982-115.38750288°29km/h26288m6.4m/s-50.3°C0.9%0hPa0V00:00:0000:00:0000:00:00
KE7DJD2026-09-03 18:25:5844.05953-115.38422284°38km/h26116m7.6m/s-50.2°C0.9%0hPa0V00:00:0000:00:0000:00:00
KE7DJD2026-09-03 18:25:2844.05933-115.38069295°27km/h25937m4.6m/s-49.9°C0.9%0hPa0V00:00:0000:00:0000:00:00
KE7DJD2026-09-03 18:24:4744.05911-115.37556243°40km/h25692m5.8m/s-49.8°C0.9%0hPa0V00:00:0000:00:0000:00:00
KE7DJD2026-09-03 18:24:2644.05968-115.37341232°42km/h25565m6.1m/s-49.6°C0.9%0hPa0V00:00:0000:00:0000:00:00
KE7DJD2026-09-03 18:24:0544.06022-115.37202198°16km/h25440m5.7m/s-50.0°C0.9%0hPa0V00:00:0000:00:0000:00:00
KE7DJD2026-09-03 18:23:4444.06080-115.37121238°13km/h25312m7.3m/s-50.1°C0.9%0hPa0V00:00:0000:00:0000:00:00
KE7DJD2026-09-03 18:23:1744.06148-115.36959234°37km/h25144m5.6m/s-51.1°C1.0%0hPa0V00:00:0000:00:0000:00:00
KE7DJD2026-09-03 18:22:5744.06245-115.36858200°16km/h25022m7.2m/s-51.3°C1.0%0hPa0V00:00:0000:00:0000:00:00
KE7DJD2026-09-03 18:22:3644.06291-115.36803173°7km/h24900m5.5m/s-52.0°C1.0%0hPa0V00:00:0000:00:0000:00:00
KE7DJD2026-09-03 18:22:0944.06379-115.36761174°4km/h24745m5.1m/s-52.4°C1.1%0hPa0V00:00:0000:00:0000:00:00
KE7DJD2026-09-03 18:21:4544.06384-115.36724245°13km/h24615m5.3m/s-52.8°C1.1%0hPa0V00:00:0000:00:0000:00:00
KE7DJD2026-09-03 18:21:1944.06400-115.36703358°22km/h24479m4.7m/s-53.0°C1.0%0hPa0V00:00:0000:00:0000:00:00
KE7DJD2026-09-03 18:20:5844.06365-115.36686340°20km/h24367m6.4m/s-53.0°C1.1%0hPa0V00:00:0000:00:0000:00:00
KE7DJD2026-09-03 18:20:3744.06343-115.36632313°26km/h24253m4.7m/s-52.6°C1.0%0hPa0V00:00:0000:00:0000:00:00
KE7DJD2026-09-03 18:20:1744.06315-115.36552289°20km/h24141m6.3m/s-53.5°C1.1%0hPa0V00:00:0000:00:0000:00:00
KE7DJD2026-09-03 18:19:4744.06349-115.36424185°13km/h23987m3.7m/s-53.9°C1.2%0hPa0V00:00:0000:00:0000:00:00
KE7DJD2026-09-03 18:19:2044.06414-115.36352254°20km/h23835m6.1m/s-54.5°C1.2%0hPa0V00:00:0000:00:0000:00:00
KE7DJD2026-09-03 18:19:0044.06435-115.36349323°4km/h23726m6.7m/s-54.0°C1.2%0hPa0V00:00:0000:00:0000:00:00
KE7DJD2026-09-03 18:18:3944.06388-115.36356323°18km/h23606m5.0m/s-54.3°C1.2%0hPa0V00:00:0000:00:0000:00:00
KE7DJD2026-09-03 18:18:1844.06366-115.36362347°9km/h23485m5.4m/s-53.9°C1.2%0hPa0V00:00:0000:00:0000:00:00
KE7DJD2026-09-03 18:17:5744.06337-115.36342311°5km/h23362m7.0m/s-54.2°C1.3%0hPa0V00:00:0000:00:0000:00:00
KE7DJD2026-09-03 18:17:3644.06284-115.36255333°20km/h23239m6.8m/s-54.2°C1.2%0hPa0V00:00:0000:00:0000:00:00
KE7DJD2026-09-03 18:17:1544.06232-115.36155300°29km/h23118m4.9m/s-54.0°C1.2%0hPa0V00:00:0000:00:0000:00:00
KE7DJD2026-09-03 18:16:5444.06224-115.36014268°22km/h22998m6.9m/s-53.0°C1.2%0hPa0V00:00:0000:00:0000:00:00
KE7DJD2026-09-03 18:16:3344.06264-115.35823252°42km/h22884m6.6m/s-53.3°C1.2%0hPa0V00:00:0000:00:0000:00:00
KE7DJD2026-09-03 18:16:1244.06356-115.35674219°27km/h22772m3.0m/s-53.9°C1.2%0hPa0V00:00:0000:00:0000:00:00
KE7DJD2026-09-03 18:15:4944.06405-115.35625273°16km/h22643m5.1m/s-53.6°C1.2%0hPa0V00:00:0000:00:0000:00:00
KE7DJD2026-09-03 18:15:2944.06409-115.35584282°11km/h22529m4.9m/s-54.3°C1.3%0hPa0V00:00:0000:00:0000:00:00
KE7DJD2026-09-03 18:15:0744.06361-115.35485331°22km/h22420m6.9m/s-54.0°C1.2%0hPa0V00:00:0000:00:0000:00:00
KE7DJD2026-09-03 18:14:4744.06288-115.35317295°31km/h22311m5.6m/s-53.6°C1.2%0hPa0V00:00:0000:00:0000:00:00
KE7DJD2026-09-03 18:14:2744.06236-115.35126280°27km/h22203m6.5m/s-52.9°C1.2%0hPa0V00:00:0000:00:0000:00:00
KE7DJD2026-09-03 18:14:0644.06212-115.34962301°35km/h22088m5.3m/s-52.6°C1.1%0hPa0V00:00:0000:00:0000:00:00
KE7DJD2026-09-03 18:13:4544.06228-115.34817240°29km/h21976m4.7m/s-52.7°C1.1%0hPa0V00:00:0000:00:0000:00:00
KE7DJD2026-09-03 18:13:2544.06239-115.3473211km/h21866m6.8m/s-54.1°C1.2%0hPa0V00:00:0000:00:0000:00:00
KE7DJD2026-09-03 18:13:0444.06144-115.34670300°22km/h21744m8.6m/s-54.6°C1.3%0hPa0V00:00:0000:00:0000:00:00
KE7DJD2026-09-03 18:12:4344.06099-115.34586272°13km/h21619m6.4m/s-53.3°C1.2%0hPa0V00:00:0000:00:0000:00:00
KE7DJD2026-09-03 18:12:2244.06090-115.34511240°27km/h21492m7.1m/s-53.4°C1.2%0hPa0V00:00:0000:00:0000:00:00
KE7DJD2026-09-03 18:12:0144.06146-115.34451178°20km/h21371m5.2m/s-53.0°C1.2%0hPa0V00:00:0000:00:0000:00:00
KE7DJD2026-09-03 18:11:4144.06171-115.34467120°15km/h21245m6.0m/s-53.9°C1.3%0hPa0V00:00:0000:00:0000:00:00
KE7DJD2026-09-03 18:11:2044.06134-115.3454425°15km/h21126m4.8m/s-54.2°C1.3%0hPa0V00:00:0000:00:0000:00:00
KE7DJD2026-09-03 18:10:5944.06055-115.34656358°31km/h21005m5.1m/s-53.9°C1.3%0hPa0V00:00:0000:00:0000:00:00
KE7DJD2026-09-03 18:10:3844.05910-115.34707356°33km/h20886m5.7m/s-53.9°C1.3%0hPa0V00:00:0000:00:0000:00:00
KE7DJD2026-09-03 18:10:1944.05728-115.34707358°44km/h20774m5.5m/s-54.0°C1.3%0hPa0V00:00:0000:00:0000:00:00
KE7DJD2026-09-03 18:09:5744.05548-115.34646349°26km/h20665m5.0m/s-53.4°C1.3%0hPa0V00:00:0000:00:0000:00:00
KE7DJD2026-09-03 18:09:3644.05384-115.34597352°35km/h20559m6.4m/s-53.1°C1.3%0hPa0V00:00:0000:00:0000:00:00
KE7DJD2026-09-03 18:09:1644.05249-115.34562342°26km/h20454m5.7m/s-53.1°C1.3%0hPa0V00:00:0000:00:0000:00:00
KE7DJD2026-09-03 18:08:5644.05126-115.34518331°24km/h20351m5.3m/s-52.9°C1.3%0hPa0V00:00:0000:00:0000:00:00
KE7DJD2026-09-03 18:08:3544.05020-115.34489328°13km/h20246m4.9m/s-52.9°C1.3%0hPa0V00:00:0000:00:0000:00:00
KE7DJD2026-09-03 18:08:1444.04966-115.3446711°18km/h20134m6.2m/s-52.1°C1.2%0hPa0V00:00:0000:00:0000:00:00
KE7DJD2026-09-03 18:07:5344.04950-115.3448246°9km/h20025m5.4m/s-52.1°C1.2%0hPa0V00:00:0000:00:0000:00:00
KE7DJD2026-09-03 18:07:3244.04982-115.34553120°11km/h19911m6.3m/s-51.5°C1.2%0hPa0V00:00:0000:00:0000:00:00
KE7DJD2026-09-03 18:07:1144.05025-115.34586109°20km/h19800m5.8m/s-51.1°C1.1%0hPa0V00:00:0000:00:0000:00:00
KE7DJD2026-09-03 18:06:5144.05046-115.3469473°15km/h19692m6.0m/s-52.3°C1.2%0hPa0V00:00:0000:00:0000:00:00
KE7DJD2026-09-03 18:06:3144.05035-115.3482843°22km/h19588m4.6m/s-52.8°C1.2%0hPa0V00:00:0000:00:0000:00:00
KE7DJD2026-09-03 18:06:1044.05001-115.3499360°22km/h19479m5.2m/s-54.3°C1.3%0hPa0V00:00:0000:00:0000:00:00
KE7DJD2026-09-03 18:05:5044.04930-115.3511036°22km/h19374m5.9m/s-54.8°C1.4%0hPa0V00:00:0000:00:0000:00:00
KE7DJD2026-09-03 18:05:3044.04856-115.3520337°13km/h19273m3.9m/s-55.7°C1.4%0hPa0V00:00:0000:00:0000:00:00
KE7DJD2026-09-03 18:05:0944.04756-115.3532235°29km/h19167m3.5m/s-55.5°C1.5%0hPa0V00:00:0000:00:0000:00:00
KE7DJD2026-09-03 18:04:4844.04600-115.3542913°37km/h19057m6.0m/s-55.7°C1.5%0hPa0V00:00:0000:00:0000:00:00
KE7DJD2026-09-03 18:04:2944.04422-115.3553922°38km/h18956m5.3m/s-55.7°C1.5%0hPa0V00:00:0000:00:0000:00:00
KE7DJD2026-09-03 18:04:0744.04221-115.3558612°37km/h18846m6.3m/s-55.1°C1.4%0hPa0V00:00:0000:00:0000:00:00
KE7DJD2026-09-03 18:03:4644.04032-115.35577341°38km/h18735m3.9m/s-54.3°C1.4%0hPa0V00:00:0000:00:0000:00:00
KE7DJD2026-09-03 18:03:2544.03834-115.3553811°27km/h18626m4.4m/s-53.8°C1.4%0hPa0V00:00:0000:00:0000:00:00
KE7DJD2026-09-03 18:03:0444.03678-115.35482344°24km/h18517m6.4m/s-53.1°C1.3%0hPa0V00:00:0000:00:0000:00:00
KE7DJD2026-09-03 18:02:4344.03568-115.35430339°11km/h18404m6.6m/s-53.8°C1.3%0hPa0V00:00:0000:00:0000:00:00
KE7DJD2026-09-03 18:02:2244.03498-115.3542511km/h18296m4.3m/s-54.5°C1.4%0hPa0V00:00:0000:00:0000:00:00
KE7DJD2026-09-03 18:02:0144.03462-115.3549577°18km/h18177m7.1m/s-54.1°C1.4%0hPa0V00:00:0000:00:0000:00:00
KE7DJD2026-09-03 18:01:4044.03421-115.3560495°24km/h18060m3.7m/s-54.2°C1.4%0hPa0V00:00:0000:00:0000:00:00
KE7DJD2026-09-03 18:01:2044.03356-115.3570726°24km/h17958m5.6m/s-54.6°C1.4%0hPa0V00:00:0000:00:0000:00:00
KE7DJD2026-09-03 18:00:5944.03286-115.3582868°26km/h17852m5.2m/s-54.4°C1.5%0hPa0V00:00:0000:00:0000:00:00
KE7DJD2026-09-03 18:00:3844.03204-115.3594065°24km/h17746m4.7m/s-54.1°C1.4%0hPa0V00:00:0000:00:0000:00:00
KE7DJD2026-09-03 18:00:1844.03097-115.3607443°35km/h17645m5.4m/s-54.1°C1.5%0hPa0V00:00:0000:00:0000:00:00
KE7DJD2026-09-03 17:59:5744.02956-115.3622339°35km/h17541m6.1m/s-53.5°C1.4%0hPa0V00:00:0000:00:0000:00:00
KE7DJD2026-09-03 17:59:3744.02840-115.3634137°35km/h17437m4.1m/s-52.4°C1.4%0hPa0V00:00:0000:00:0000:00:00
KE7DJD2026-09-03 17:59:1544.02732-115.3648163°24km/h17331m6.2m/s-51.9°C1.3%0hPa0V00:00:0000:00:0000:00:00
KE7DJD2026-09-03 17:58:5444.02606-115.3669657°44km/h17222m5.9m/s-52.8°C1.4%0hPa0V00:00:0000:00:0000:00:00
KE7DJD2026-09-03 17:58:3344.02446-115.3695357°37km/h17115m5.3m/s-52.9°C1.3%0hPa0V00:00:0000:00:0000:00:00
KE7DJD2026-09-03 17:58:1444.02287-115.3720339°55km/h17016m4.6m/s-54.3°C1.6%0hPa0V00:00:0000:00:0000:00:00
KE7DJD2026-09-03 17:57:5244.02076-115.3745634°57km/h16910m5.3m/s-53.6°C1.5%0hPa0V00:00:0000:00:0000:00:00
KE7DJD2026-09-03 17:57:3244.01866-115.3767146°47km/h16811m5.9m/s-53.0°C1.4%0hPa0V00:00:0000:00:0000:00:00
KE7DJD2026-09-03 17:57:1144.01661-115.3789033°37km/h16704m4.1m/s-53.2°C1.5%0hPa0V00:00:0000:00:0000:00:00
KE7DJD2026-09-03 17:56:5044.01467-115.3812354°57km/h16596m4.3m/s-53.2°C1.5%0hPa0V00:00:0000:00:0000:00:00
KE7DJD2026-09-03 17:56:3044.01280-115.3842855°60km/h16500m4.0m/s-54.2°C1.6%0hPa0V00:00:0000:00:0000:00:00
KE7DJD2026-09-03 17:56:0944.01061-115.3887156°88km/h16401m4.3m/s-55.9°C1.7%0hPa0V00:00:0000:00:0000:00:00
KE7DJD2026-09-03 17:55:4844.00810-115.3931441°68km/h16299m5.6m/s-57.3°C1.9%0hPa0V00:00:0000:00:0000:00:00
KE7DJD2026-09-03 17:55:2744.00578-115.3966454°57km/h16195m4.6m/s-57.3°C1.9%0hPa0V00:00:0000:00:0000:00:00
KE7DJD2026-09-03 17:55:0744.00392-115.3997049°46km/h16097m4.8m/s-57.3°C2.0%0hPa0V00:00:0000:00:0000:00:00
KE7DJD2026-09-03 17:54:4744.00236-115.4024360°44km/h16001m5.0m/s-56.7°C1.9%0hPa0V00:00:0000:00:0000:00:00
KE7DJD2026-09-03 17:54:2644.00100-115.4051767°38km/h15893m5.5m/s-56.2°C1.9%0hPa0V00:00:0000:00:0000:00:00
KE7DJD2026-09-03 17:54:0644.00002-115.4080266°53km/h15792m3.9m/s-56.3°C1.9%0hPa0V00:00:0000:00:0000:00:00
KE7DJD2026-09-03 17:53:2643.99736-115.4160365°62km/h15594m3.7m/s-55.2°C1.9%0hPa0V00:00:0000:00:0000:00:00
KE7DJD2026-09-03 17:53:0543.99575-115.4201757°66km/h15489m5.1m/s-55.2°C1.9%0hPa0V00:00:0000:00:0000:00:00
KE7DJD2026-09-03 17:52:4543.99407-115.4243060°75km/h15393m6.1m/s-55.9°C2.1%0hPa0V00:00:0000:00:0000:00:00
KE7DJD2026-09-03 17:52:2443.99219-115.4289862°68km/h15290m5.1m/s-56.2°C2.3%0hPa0V00:00:0000:00:0000:00:00
KE7DJD2026-09-03 17:52:0443.99063-115.4330767°66km/h15195m5.1m/s-56.1°C2.4%0hPa0V00:00:0000:00:0000:00:00
KE7DJD2026-09-03 17:51:4343.98942-115.4380676°77km/h15093m3.4m/s-55.8°C2.4%0hPa0V00:00:0000:00:0000:00:00
KE7DJD2026-09-03 17:51:2243.98841-115.4436672°84km/h14993m5.1m/s-55.8°C2.4%0hPa0V00:00:0000:00:0000:00:00
KE7DJD2026-09-03 17:51:0243.98713-115.4493076°78km/h14903m4.6m/s-55.6°C2.5%0hPa0V00:00:0000:00:0000:00:00
KE7DJD2026-09-03 17:50:2143.98322-115.4602559°84km/h14715m3.4m/s-56.0°C2.6%0hPa0V00:00:0000:00:0000:00:00
KE7DJD2026-09-03 17:50:0143.98130-115.4652062°88km/h14627m5.8m/s-55.2°C2.5%0hPa0V00:00:0000:00:0000:00:00
KE7DJD2026-09-03 17:49:4043.97961-115.4704774°73km/h14528m3.8m/s-54.6°C2.5%0hPa0V00:00:0000:00:0000:00:00
KE7DJD2026-09-03 17:49:2043.97830-115.4758776°80km/h14432m5.8m/s-55.1°C2.6%0hPa0V00:00:0000:00:0000:00:00
KE7DJD2026-09-03 17:48:5943.97704-115.4817376°80km/h14337m5.2m/s-54.6°C2.5%0hPa0V00:00:0000:00:0000:00:00
KE7DJD2026-09-03 17:48:3843.97570-115.4873171°77km/h14242m5.5m/s-54.5°C2.6%0hPa0V00:00:0000:00:0000:00:00
KE7DJD2026-09-03 17:47:5643.97322-115.4988379°91km/h14056m3.8m/s-53.6°C2.6%0hPa0V00:00:0000:00:0000:00:00
KE7DJD2026-09-03 17:47:3543.97238-115.5056880°95km/h13960m5.8m/s-53.5°C2.7%0hPa0V00:00:0000:00:0000:00:00
KE7DJD2026-09-03 17:47:1543.97149-115.5131478°102km/h13862m3.7m/s-53.8°C2.9%0hPa0V00:00:0000:00:0000:00:00
KE7DJD2026-09-03 17:46:5443.97018-115.5208677°122km/h13766m3.6m/s-53.7°C3.1%0hPa0V00:00:0000:00:0000:00:00
KE7DJD2026-09-03 17:46:3343.96839-115.5291976°117km/h13662m6.6m/s-53.5°C3.3%0hPa0V00:00:0000:00:0000:00:00
KE7DJD2026-09-03 17:46:1343.96587-115.5371864°128km/h13558m5.4m/s-54.1°C3.7%0hPa0V00:00:0000:00:0000:00:00
KE7DJD2026-09-03 17:45:5343.96258-115.5446152°115km/h13456m4.5m/s-55.4°C4.3%0hPa0V00:00:0000:00:0000:00:00
KE7DJD2026-09-03 17:45:3243.95820-115.5513047°120km/h13359m5.0m/s-54.7°C4.3%0hPa0V00:00:0000:00:0000:00:00
KE7DJD2026-09-03 17:45:1243.95386-115.5574142°120km/h13271m3.7m/s-54.1°C4.1%0hPa0V00:00:0000:00:0000:00:00
KE7DJD2026-09-03 17:44:5243.94955-115.5631743°110km/h13183m5.5m/s-53.8°C4.2%0hPa0V00:00:0000:00:0000:00:00
KE7DJD2026-09-03 17:44:3143.94527-115.5684139°102km/h13090m5.8m/s-53.8°C4.2%0hPa0V00:00:0000:00:0000:00:00
KE7DJD2026-09-03 17:44:1143.94164-115.5733548°100km/h13003m4.6m/s-53.1°C4.3%0hPa0V00:00:0000:00:0000:00:00
KE7DJD2026-09-03 17:43:5043.93807-115.5785753°97km/h12913m3.7m/s-52.9°C4.4%0hPa0V00:00:0000:00:0000:00:00
KE7DJD2026-09-03 17:43:3043.93482-115.5836155°95km/h12829m4.9m/s-52.6°C4.6%0hPa0V00:00:0000:00:0000:00:00
KE7DJD2026-09-03 17:43:1043.93199-115.5887058°89km/h12737m4.5m/s-52.2°C4.4%0hPa0V00:00:0000:00:0000:00:00
KE7DJD2026-09-03 17:42:4943.92914-115.5943453°100km/h12642m5.1m/s-51.6°C4.3%0hPa0V00:00:0000:00:0000:00:00
KE7DJD2026-09-03 17:42:3043.92619-115.5997857°97km/h12543m5.7m/s-50.7°C4.1%0hPa0V00:00:0000:00:0000:00:00
KE7DJD2026-09-03 17:42:0943.92316-115.6057959°102km/h12447m4.2m/s-50.4°C4.3%0hPa0V00:00:0000:00:0000:00:00
KE7DJD2026-09-03 17:41:4843.92045-115.6118865°102km/h12356m4.4m/s-50.1°C4.7%0hPa0V00:00:0000:00:0000:00:00
KE7DJD2026-09-03 17:41:2743.91782-115.6187064°104km/h12258m5.3m/s-50.3°C5.6%0hPa0V00:00:0000:00:0000:00:00
KE7DJD2026-09-03 17:41:0743.91530-115.6256663°113km/h12162m6.0m/s-50.4°C6.9%0hPa0V00:00:0000:00:0000:00:00
KE7DJD2026-09-03 17:40:4643.91238-115.6338467°126km/h12058m4.8m/s-51.2°C9.2%0hPa0V00:00:0000:00:0000:00:00
KE7DJD2026-09-03 17:40:2543.90933-115.6429265°135km/h11946m4.4m/s-50.5°C9.4%0hPa0V00:00:0000:00:0000:00:00
KE7DJD2026-09-03 17:40:0543.90593-115.6517366°151km/h11846m6.5m/s-50.4°C11.3%0hPa0V00:00:0000:00:0000:00:00
KE7DJD2026-09-03 17:39:4343.90142-115.6612351°150km/h11709m3.6m/s-51.9°C18.2%0hPa0V00:00:0000:00:0000:00:00
KE7DJD2026-09-03 17:39:2243.89626-115.6703052°161km/h11610m7.2m/s-52.7°C34.6%0hPa0V00:00:0000:00:0000:00:00
KE7DJD2026-09-03 17:39:0243.89050-115.6793953°164km/h11514m3.7m/s-52.3°C40.3%0hPa0V00:00:0000:00:0000:00:00
KE7DJD2026-09-03 17:38:4143.88518-115.6880652°164km/h11425m4.1m/s-51.7°C41.1%0hPa0V00:00:0000:00:0000:00:00
KE7DJD2026-09-03 17:38:2043.87976-115.6973151°155km/h11330m3.6m/s-51.0°C34.4%0hPa0V00:00:0000:00:0000:00:00
KE7DJD2026-09-03 17:38:0043.87447-115.7061853°170km/h11243m3.5m/s-50.6°C46.5%0hPa0V00:00:0000:00:0000:00:00
KE7DJD2026-09-03 17:37:3943.86883-115.7154949°159km/h11154m3.1m/s-49.8°C44.4%0hPa0V00:00:0000:00:0000:00:00
KE7DJD2026-09-03 17:37:1843.86307-115.7247849°164km/h11064m4.1m/s-49.3°C33.6%0hPa0V00:00:0000:00:0000:00:00
KE7DJD2026-09-03 17:36:5843.85755-115.7336351°170km/h10979m5.0m/s-48.5°C38.7%0hPa0V00:00:0000:00:0000:00:00
KE7DJD2026-09-03 17:36:3743.85174-115.7430651°170km/h10891m4.2m/s-47.8°C41.2%0hPa0V00:00:0000:00:0000:00:00
KE7DJD2026-09-03 17:36:1643.84591-115.7527852°170km/h10801m6.0m/s-47.1°C43.8%0hPa0V00:00:0000:00:0000:00:00
KE7DJD2026-09-03 17:35:5643.84030-115.7619253°170km/h10709m3.9m/s-46.3°C41.0%0hPa0V00:00:0000:00:0000:00:00
KE7DJD2026-09-03 17:35:3543.83448-115.7715552°170km/h10617m4.5m/s-45.5°C35.2%0hPa0V00:00:0000:00:0000:00:00
KE7DJD2026-09-03 17:34:5443.82362-115.7897650°166km/h10432m4.3m/s-44.2°C18.4%0hPa0V00:00:0000:00:0000:00:00
KE7DJD2026-09-03 17:34:3443.81848-115.7983149°151km/h10339m4.4m/s-43.8°C21.4%0hPa0V00:00:0000:00:0000:00:00
KE7DJD2026-09-03 17:34:1443.81325-115.8068349°164km/h10247m5.6m/s-43.1°C15.0%0hPa0V00:00:0000:00:0000:00:00
KE7DJD2026-09-03 17:33:5343.80790-115.8155949°155km/h10147m4.0m/s-42.1°C16.0%0hPa0V00:00:0000:00:0000:00:00
KE7DJD2026-09-03 17:33:3243.80278-115.8241751°162km/h10048m6.1m/s-41.2°C12.5%0hPa0V00:00:0000:00:0000:00:00
KE7DJD2026-09-03 17:33:1243.79797-115.8319652°133km/h9932m4.9m/s-40.8°C12.6%0hPa0V00:00:0000:00:0000:00:00
KE7DJD2026-09-03 17:32:5143.79306-115.8397748°135km/h9836m3.9m/s-40.0°C12.0%0hPa0V00:00:0000:00:0000:00:00
KE7DJD2026-09-03 17:32:3143.78861-115.8474652°144km/h9741m4.6m/s-39.0°C11.2%0hPa0V00:00:0000:00:0000:00:00
KE7DJD2026-09-03 17:32:1043.78415-115.8555052°148km/h9646m4.0m/s-38.3°C11.0%0hPa0V00:00:0000:00:0000:00:00
KE7DJD2026-09-03 17:31:5043.77998-115.8631555°130km/h9556m5.4m/s-37.9°C12.5%0hPa0V00:00:0000:00:0000:00:00
KE7DJD2026-09-03 17:31:2943.77565-115.8711554°135km/h9459m4.9m/s-37.1°C11.9%0hPa0V00:00:0000:00:0000:00:00
KE7DJD2026-09-03 17:31:0843.77132-115.8790554°131km/h9363m4.0m/s-36.3°C11.5%0hPa0V00:00:0000:00:0000:00:00
KE7DJD2026-09-03 17:30:4743.76688-115.8869453°142km/h9268m5.5m/s-35.6°C10.6%0hPa0V00:00:0000:00:0000:00:00
KE7DJD2026-09-03 17:30:2743.76271-115.8946554°141km/h9181m4.4m/s-34.7°C10.2%0hPa0V00:00:0000:00:0000:00:00
KE7DJD2026-09-03 17:29:4643.75431-115.9103456°139km/h8992m5.4m/s-33.3°C8.1%0hPa0V00:00:0000:00:0000:00:00
KE7DJD2026-09-03 17:29:2543.75018-115.9185655°144km/h8898m4.3m/s-32.5°C7.5%0hPa0V00:00:0000:00:0000:00:00
KE7DJD2026-09-03 17:29:0443.74596-115.9268456°137km/h8804m4.1m/s-31.6°C6.5%0hPa0V00:00:0000:00:0000:00:00
KE7DJD2026-09-03 17:28:4343.74192-115.9351057°141km/h8711m3.7m/s-30.7°C6.3%0hPa0V00:00:0000:00:0000:00:00
KE7DJD2026-09-03 17:28:2243.73784-115.9433555°137km/h8621m3.2m/s-29.9°C5.9%0hPa0V00:00:0000:00:0000:00:00
KE7DJD2026-09-03 17:28:0143.73373-115.9516454°141km/h8532m5.0m/s-29.3°C5.6%0hPa0V00:00:0000:00:0000:00:00
KE7DJD2026-09-03 17:27:4043.72957-115.9598457°139km/h8439m4.1m/s-29.1°C7.7%0hPa0V00:00:0000:00:0000:00:00
KE7DJD2026-09-03 17:27:2043.72570-115.9677055°137km/h8348m4.5m/s-29.0°C11.3%0hPa0V00:00:0000:00:0000:00:00
KE7DJD2026-09-03 17:26:5943.72195-115.9757461°128km/h8243m5.2m/s-28.6°C18.7%0hPa0V00:00:0000:00:0000:00:00
KE7DJD2026-09-03 17:26:3943.71858-115.9832059°119km/h8152m2.9m/s-27.9°C21.1%0hPa0V00:00:0000:00:0000:00:00
KE7DJD2026-09-03 17:26:1843.71496-115.9908455°130km/h8060m3.8m/s-27.2°C42.5%0hPa0V00:00:0000:00:0000:00:00
KE7DJD2026-09-03 17:25:5843.71133-115.9981756°117km/h7967m4.4m/s-27.0°C49.3%0hPa0V00:00:0000:00:0000:00:00
KE7DJD2026-09-03 17:25:3643.70775-116.0053159°106km/h7871m3.8m/s-26.0°C51.9%0hPa0V00:00:0000:00:0000:00:00
KE7DJD2026-09-03 17:25:1643.70435-116.0120060°119km/h7781m4.5m/s-25.3°C45.3%0hPa0V00:00:0000:00:0000:00:00
KE7DJD2026-09-03 17:24:5543.70079-116.0191957°130km/h7685m4.6m/s-24.7°C43.7%0hPa0V00:00:0000:00:0000:00:00
KE7DJD2026-09-03 17:24:3443.69755-116.0263863°113km/h7574m4.2m/s-24.0°C38.4%0hPa0V00:00:0000:00:0000:00:00
KE7DJD2026-09-03 17:23:5443.69161-116.0400558°102km/h7393m4.2m/s-22.9°C35.4%0hPa0V00:00:0000:00:0000:00:00
KE7DJD2026-09-03 17:23:3343.68842-116.0467756°113km/h7305m5.2m/s-22.5°C35.4%0hPa0V00:00:0000:00:0000:00:00
KE7DJD2026-09-03 17:23:1343.68537-116.0529060°104km/h7215m4.0m/s-21.8°C35.3%0hPa0V00:00:0000:00:0000:00:00
KE7DJD2026-09-03 17:22:5243.68206-116.0591458°108km/h7122m5.4m/s-21.1°C35.6%0hPa0V00:00:0000:00:0000:00:00
KE7DJD2026-09-03 17:22:3143.67879-116.0650252°100km/h7015m5.3m/s-20.5°C38.3%0hPa0V00:00:0000:00:0000:00:00
KE7DJD2026-09-03 17:22:1243.67568-116.0702752°97km/h6911m5.3m/s-19.7°C36.5%0hPa0V00:00:0000:00:0000:00:00
KE7DJD2026-09-03 17:21:5043.67248-116.0761948°104km/h6795m6.1m/s-18.7°C39.8%0hPa0V00:00:0000:00:0000:00:00
KE7DJD2026-09-03 17:21:3043.66877-116.0816444°95km/h6688m4.2m/s-18.0°C36.8%0hPa0V00:00:0000:00:0000:00:00
KE7DJD2026-09-03 17:21:0843.66526-116.0873046°104km/h6579m5.0m/s-17.1°C32.9%0hPa0V00:00:0000:00:0000:00:00
KE7DJD2026-09-03 17:20:2643.65843-116.0991656°102km/h6377m8.3m/s-15.9°C29.8%0hPa0V00:00:0000:00:0000:00:00
KE7DJD2026-09-03 17:20:0543.65542-116.1047958°106km/h6264m5.2m/s-15.8°C33.8%0hPa0V00:00:0000:00:0000:00:00
KE7DJD2026-09-03 17:19:4443.65304-116.1109569°86km/h6159m4.2m/s-15.9°C40.1%0hPa0V00:00:0000:00:0000:00:00
KE7DJD2026-09-03 17:19:2443.65078-116.1163366°95km/h6073m3.8m/s-15.7°C48.5%0hPa0V00:00:0000:00:0000:00:00
KE7DJD2026-09-03 17:19:0443.64904-116.1213861°69km/h5975m6.4m/s-15.4°C51.1%0hPa0V00:00:0000:00:0000:00:00
KE7DJD2026-09-03 17:18:4343.64733-116.1264657°77km/h5873m5.4m/s-15.0°C47.9%0hPa0V00:00:0000:00:0000:00:00
KE7DJD2026-09-03 17:18:0243.64314-116.1344457°66km/h5652m5.6m/s-13.3°C31.4%0hPa0V00:00:0000:00:0000:00:00
KE7DJD2026-09-03 17:17:4243.64045-116.1385154°75km/h5528m6.9m/s-12.1°C23.2%0hPa0V00:00:0000:00:0000:00:00
KE7DJD2026-09-03 17:17:2243.63749-116.1424651°80km/h5432m4.0m/s-11.3°C20.9%0hPa0V00:00:0000:00:0000:00:00
KE7DJD2026-09-03 17:16:4243.63197-116.1513450°89km/h5232m5.4m/s-9.8°C13.5%0hPa0V00:00:0000:00:0000:00:00
KE7DJD2026-09-03 17:16:2143.62890-116.1555646°73km/h5118m4.5m/s-11.2°C29.8%0hPa0V00:00:0000:00:0000:00:00
KE7DJD2026-09-03 17:16:0143.62609-116.1594851°68km/h5011m5.7m/s-13.0°C99.0%0hPa0V00:00:0000:00:0000:00:00
KE7DJD2026-09-03 17:15:4043.62352-116.1629152°75km/h4868m6.5m/s-11.9°C98.1%0hPa0V00:00:0000:00:0000:00:00
KE7DJD2026-09-03 17:15:1943.62067-116.1665756°68km/h4735m7.1m/s-10.8°C91.5%0hPa0V00:00:0000:00:0000:00:00
KE7DJD2026-09-03 17:14:5843.61805-116.1700932°71km/h4626m5.2m/s-9.8°C87.5%0hPa0V00:00:0000:00:0000:00:00
KE7DJD2026-09-03 17:14:3743.61506-116.1734236°53km/h4511m6.7m/s-8.8°C81.8%0hPa0V00:00:0000:00:0000:00:00
KE7DJD2026-09-03 17:14:1743.61187-116.1766039°60km/h4409m4.9m/s-7.8°C77.5%0hPa0V00:00:0000:00:0000:00:00
KE7DJD2026-09-03 17:13:5743.60913-116.1797651°78km/h4288m7.8m/s-7.0°C83.1%0hPa0V00:00:0000:00:0000:00:00
KE7DJD2026-09-03 17:13:3643.60678-116.1828846°80km/h4161m8.1m/s-6.1°C84.1%0hPa0V00:00:0000:00:0000:00:00
KE7DJD2026-09-03 17:13:1543.60451-116.1861137°64km/h4029m5.8m/s-5.1°C78.2%0hPa0V00:00:0000:00:0000:00:00
KE7DJD2026-09-03 17:12:5443.60238-116.1894759°71km/h3904m5.2m/s-4.2°C72.0%0hPa0V00:00:0000:00:0000:00:00
KE7DJD2026-09-03 17:12:3343.60057-116.1926857°55km/h3792m6.8m/s-3.7°C74.3%0hPa0V00:00:0000:00:0000:00:00
KE7DJD2026-09-03 17:12:1243.59866-116.1952447°60km/h3675m4.7m/s-3.9°C97.9%0hPa0V00:00:0000:00:0000:00:00
KE7DJD2026-09-03 17:11:5243.59712-116.1972543°27km/h3554m4.8m/s-3.0°C97.5%0hPa0V00:00:0000:00:0000:00:00
KE7DJD2026-09-03 17:11:3243.59557-116.1993626°40km/h3439m6.1m/s-2.2°C97.6%0hPa0V00:00:0000:00:0000:00:00
KE7DJD2026-09-03 17:11:1143.59413-116.2013047°40km/h3328m4.9m/s-1.3°C95.1%0hPa0V00:00:0000:00:0000:00:00
KE7DJD2026-09-03 17:10:5043.59251-116.2029339°51km/h3190m6.9m/s-0.4°C97.5%0hPa0V00:00:0000:00:0000:00:00
KE7DJD2026-09-03 17:10:3043.59076-116.2041637°29km/h3072m5.7m/s0.4°C99.6%0hPa0V00:00:0000:00:0000:00:00
KE7DJD2026-09-03 17:10:0943.58888-116.2054712°42km/h2948m5.7m/s1.2°C96.3%0hPa0V00:00:0000:00:0000:00:00
KE7DJD2026-09-03 17:09:4843.58706-116.2069344°47km/h2823m5.3m/s2.0°C93.8%0hPa0V00:00:0000:00:0000:00:00
KE7DJD2026-09-03 17:09:2743.58514-116.2086225°35km/h2707m5.5m/s2.7°C89.6%0hPa0V00:00:0000:00:0000:00:00
KE7DJD2026-09-03 17:09:0743.58359-116.2103340°49km/h2599m4.9m/s3.6°C85.4%0hPa0V00:00:0000:00:0000:00:00
KE7DJD2026-09-03 17:08:4643.58200-116.2118952°31km/h2485m6.6m/s4.4°C82.6%0hPa0V00:00:0000:00:0000:00:00
KE7DJD2026-09-03 17:08:2543.58068-116.2133345°22km/h2363m5.6m/s5.3°C77.3%0hPa0V00:00:0000:00:0000:00:00
KE7DJD2026-09-03 17:08:0443.57949-116.2145134°20km/h2241m5.1m/s6.3°C73.2%0hPa0V00:00:0000:00:0000:00:00
KE7DJD2026-09-03 17:07:4343.57834-116.2155441°13km/h2120m5.2m/s7.2°C73.3%0hPa0V00:00:0000:00:0000:00:00
KE7DJD2026-09-03 17:07:2243.57753-116.21632343°13km/h2007m4.3m/s8.1°C70.6%0hPa0V00:00:0000:00:0000:00:00
KE7DJD2026-09-03 17:06:4143.57669-116.21728360°24km/h1773m6.6m/s10.2°C62.4%0hPa0V00:00:0000:00:0000:00:00
KE7DJD2026-09-03 17:06:2143.57604-116.21764349°18km/h1665m6.1m/s11.3°C58.4%0hPa0V00:00:0000:00:0000:00:00
KE7DJD2026-09-03 17:06:0043.57515-116.2176427°24km/h1548m6.6m/s12.4°C54.8%0hPa0V00:00:0000:00:0000:00:00
KE7DJD2026-09-03 17:05:4143.57410-116.21739315°13km/h1433m7.0m/s0°C0%0hPa0V00:00:0000:00:0000:00:00


GPX KML Map

© wettersonde.net (DO2JMG) - 2026  -  -